Sea Successc\ — VRS4325 — position and weather

sailwx.info

Track history (hours):
 
Tides and Currents Weather Stations Pressure Air Temp Water Temp Dewpoint Dewpoint Depression Visibility Wind Speed Wind Dir Waves Ship Positions

Sea Successc\

Last reported at 2016-Dec-06 13:24 UTC. Time now 2016-Dec-06 18:01 UTC.
Position N 22°18' E 114°08'.

Length 27 m.

Type: Ship. MMSI: 477995071.

Date/timePositionNaut miles runAvg speedWind from/ knotsBaromVisibWave heightAir tempDewpointWater temp
2016-Dec-06 13:24N 22°18' E 114°08'1 0.8
2016-Dec-06 11:34N 22°17' E 114°09'2 1.4
2016-Dec-06 10:11N 22°18' E 114°07'2 2.6
2016-Dec-06 09:33N 22°18' E 114°09'1 0.7
2016-Dec-06 08:33N 22°18' E 114°09'1 0.3
2016-Dec-06 05:33N 22°17' E 114°10'0 0.0
2016-Dec-06 02:29N 22°17' E 114°10'2 1.6
2016-Dec-06 01:05N 22°18' E 114°07'2 1.5
2016-Dec-05 23:33N 22°17' E 114°10'2 1.3
2016-Dec-05 22:17N 22°18' E 114°08'0 0.0
2016-Dec-05 13:24N 22°18' E 114°08'2 0.9
2016-Dec-05 11:33N 22°17' E 114°10'2 1.3
2016-Dec-05 10:11N 22°18' E 114°08'2 2.4
2016-Dec-05 09:33N 22°18' E 114°09'1 1.2
2016-Dec-05 08:33N 22°17' E 114°10'0 0.0
2016-Dec-05 05:33N 22°17' E 114°10'0 0.0
2016-Dec-05 02:33N 22°17' E 114°10'2 1.2
2016-Dec-05 01:06N 22°18' E 114°08'2 1.1
2016-Dec-04 23:33N 22°17' E 114°10'1 1.0
2016-Dec-04 22:14N 22°18' E 114°08'1 0.1
2016-Dec-04 12:33N 22°17' E 114°07'3 1.3
2016-Dec-04 10:33N 22°17' E 114°10'2 1.2
2016-Dec-04 09:11N 22°18' E 114°08'2 3.0
2016-Dec-04 08:34N 22°18' E 114°10'2 1.1
2016-Dec-04 07:11N 22°18' E 114°08'1 2.0
2016-Dec-04 06:33N 22°17' E 114°09'0 0.0
2016-Dec-04 03:33N 22°17' E 114°10'0 0.1
2016-Dec-04 02:33N 22°17' E 114°10'0 0.0
2016-Dec-04 01:24N 22°17' E 114°10'0 0.1
2016-Dec-04 00:33N 22°17' E 114°10'2 1.9
2016-Dec-03 23:29N 22°19' E 114°09'2 0.2
2016-Dec-03 13:28N 22°18' E 114°08'2 1.8
2016-Dec-03 12:28N 22°17' E 114°10'0 0.0
2016-Dec-03 11:12N 22°17' E 114°10'0 0.4
2016-Dec-03 10:07N 22°18' E 114°09'0 0.2
2016-Dec-03 08:23N 22°17' E 114°10'0 0.1
2016-Dec-03 05:33N 22°17' E 114°10'0 0.0
2016-Dec-03 02:33N 22°17' E 114°10'2 1.3
2016-Dec-03 01:08N 22°18' E 114°08'2 1.2
2016-Dec-02 23:33N 22°17' E 114°10'2 1.9
2016-Dec-02 22:33N 22°18' E 114°08'0 0.0
2016-Dec-02 13:25N 22°18' E 114°08'1 0.8
2016-Dec-02 11:33N 22°17' E 114°09'0 0.1
2016-Dec-02 10:10N 22°17' E 114°10'0 0.8
2016-Dec-02 09:33N 22°17' E 114°10'0 0.4
2016-Dec-02 08:33N 22°17' E 114°10'0 0.0
2016-Dec-02 05:33N 22°17' E 114°10'0 0.0
2016-Dec-02 02:34N 22°17' E 114°10'2 1.6
2016-Dec-02 01:06N 22°17' E 114°07'2 1.4
2016-Dec-01 23:32N 22°17' E 114°09'2 1.4
2016-Dec-01 22:19N 22°18' E 114°08'0 0.0
2016-Dec-01 13:26N 22°18' E 114°08'1 0.8
2016-Dec-01 12:28N 22°17' E 114°07'3 2.1
2016-Dec-01 11:13N 22°17' E 114°10'1 1.0
2016-Dec-01 10:09N 22°18' E 114°08'1 1.6
2016-Dec-01 09:33N 22°17' E 114°09'1 0.7
2016-Dec-01 08:32N 22°18' E 114°09'1 0.3
2016-Dec-01 05:33N 22°17' E 114°10'0 0.1
2016-Dec-01 02:25N 22°17' E 114°09'0 0.0
2016-Nov-30 23:30N 22°17' E 114°10'0 0.3
2016-Nov-30 22:12N 22°18' E 114°09'1 0.1
2016-Nov-30 13:25N 22°18' E 114°08'0 0.2
2016-Nov-30 12:05N 22°18' E 114°08'1 2.2
2016-Nov-30 11:27N 22°17' E 114°10'2 1.6
2016-Nov-30 10:19N 22°18' E 114°08'2 1.8
2016-Nov-30 09:26N 22°18' E 114°09'0 0.0
2016-Nov-30 08:31N 22°18' E 114°09'0 0.0
2016-Nov-30 06:30N 22°18' E 114°09'0 0.0
2016-Nov-30 03:05N 22°18' E 114°09'1 1.1
2016-Nov-30 02:33N 22°18' E 114°09'0 0.1
2016-Nov-29 23:33N 22°17' E 114°10'2 1.2
2016-Nov-29 22:17N 22°18' E 114°08'0 0.0
2016-Nov-29 13:32N 22°18' E 114°08'0 0.4
2016-Nov-29 12:32N 22°17' E 114°07'2 1.9
2016-Nov-29 11:16N 22°17' E 114°10'3 3.0
2016-Nov-29 10:24N 22°18' E 114°07'3 2.5
2016-Nov-29 09:20N 22°17' E 114°10'0 0.1
2016-Nov-29 08:32N 22°17' E 114°10'0 0.0
2016-Nov-29 02:33N 22°17' E 114°10'2 1.3
2016-Nov-29 01:07N 22°18' E 114°08'2 1.2
2016-Nov-28 23:33N 22°17' E 114°10'2 1.4
2016-Nov-28 22:19N 22°18' E 114°08'0 0.0
2016-Nov-28 13:24N 22°18' E 114°08'2 0.9
2016-Nov-28 11:33N 22°17' E 114°10'1 0.5
2016-Nov-28 10:07N 22°18' E 114°09'0 0.4
2016-Nov-28 09:33N 22°18' E 114°09'0 0.4
2016-Nov-28 08:33N 22°18' E 114°09'1 0.2
2016-Nov-28 05:33N 22°17' E 114°10'0 0.0
2016-Nov-28 02:31N 22°17' E 114°10'2 1.2
2016-Nov-28 01:05N 22°18' E 114°08'2 1.1
2016-Nov-27 23:33N 22°17' E 114°10'2 1.7
2016-Nov-27 22:25N 22°18' E 114°08'0 0.1
2016-Nov-27 14:29N 22°18' E 114°08'1 0.5
2016-Nov-27 12:28N 22°18' E 114°09'0 0.2
2016-Nov-27 10:16N 22°17' E 114°10'0 0.1
2016-Nov-27 09:06N 22°17' E 114°09'0 0.2
2016-Nov-27 08:27N 22°17' E 114°09'0 0.0
2016-Nov-27 07:33N 22°17' E 114°09'0 0.0
2016-Nov-27 06:27N 22°17' E 114°09'0 0.0
2016-Nov-27 05:30N 22°17' E 114°09'1 0.9
2016-Nov-27 04:09N 22°18' E 114°08'0 0.8
2016-Nov-27 03:33N 22°18' E 114°09'2 1.6
2016-Nov-27 02:31N 22°17' E 114°07'2 2.2
2016-Nov-27 01:23N 22°18' E 114°09'0 0.0
2016-Nov-27 00:30N 22°18' E 114°09'1 0.9
2016-Nov-26 23:23N 22°19' E 114°09'2 0.2
2016-Nov-26 13:25N 22°18' E 114°07'  
Track history (hours):
 
Tides and Currents Weather Stations Pressure Air Temp Water Temp Dewpoint Dewpoint Depression Visibility Wind Speed Wind Dir Waves Ship Positions

Sea Successc\

Last reported at 2016-Dec-06 13:24 UTC. Time now 2016-Dec-06 18:01 UTC.
Position N 22°18' E 114°08'.

Length 27 m.

Type: Ship. MMSI: 477995071.

Date/timePositionNaut miles runAvg speedWind from/ knotsBaromVisibWave heightAir tempDewpointWater temp
2016-Dec-06 13:24N 22°18' E 114°08'1 0.8
2016-Dec-06 11:34N 22°17' E 114°09'2 1.4
2016-Dec-06 10:11N 22°18' E 114°07'2 2.6
2016-Dec-06 09:33N 22°18' E 114°09'1 0.7
2016-Dec-06 08:33N 22°18' E 114°09'1 0.3
2016-Dec-06 05:33N 22°17' E 114°10'0 0.0
2016-Dec-06 02:29N 22°17' E 114°10'2 1.6
2016-Dec-06 01:05N 22°18' E 114°07'2 1.5
2016-Dec-05 23:33N 22°17' E 114°10'2 1.3
2016-Dec-05 22:17N 22°18' E 114°08'0 0.0
2016-Dec-05 13:24N 22°18' E 114°08'2 0.9
2016-Dec-05 11:33N 22°17' E 114°10'2 1.3
2016-Dec-05 10:11N 22°18' E 114°08'2 2.4
2016-Dec-05 09:33N 22°18' E 114°09'1 1.2
2016-Dec-05 08:33N 22°17' E 114°10'0 0.0
2016-Dec-05 05:33N 22°17' E 114°10'0 0.0
2016-Dec-05 02:33N 22°17' E 114°10'2 1.2
2016-Dec-05 01:06N 22°18' E 114°08'2 1.1
2016-Dec-04 23:33N 22°17' E 114°10'1 1.0
2016-Dec-04 22:14N 22°18' E 114°08'1 0.1
2016-Dec-04 12:33N 22°17' E 114°07'3 1.3
2016-Dec-04 10:33N 22°17' E 114°10'2 1.2
2016-Dec-04 09:11N 22°18' E 114°08'2 3.0
2016-Dec-04 08:34N 22°18' E 114°10'2 1.1
2016-Dec-04 07:11N 22°18' E 114°08'1 2.0
2016-Dec-04 06:33N 22°17' E 114°09'0 0.0
2016-Dec-04 03:33N 22°17' E 114°10'0 0.1
2016-Dec-04 02:33N 22°17' E 114°10'0 0.0
2016-Dec-04 01:24N 22°17' E 114°10'0 0.1
2016-Dec-04 00:33N 22°17' E 114°10'2 1.9
2016-Dec-03 23:29N 22°19' E 114°09'2 0.2
2016-Dec-03 13:28N 22°18' E 114°08'2 1.8
2016-Dec-03 12:28N 22°17' E 114°10'0 0.0
2016-Dec-03 11:12N 22°17' E 114°10'0 0.4
2016-Dec-03 10:07N 22°18' E 114°09'0 0.2
2016-Dec-03 08:23N 22°17' E 114°10'0 0.1
2016-Dec-03 05:33N 22°17' E 114°10'0 0.0
2016-Dec-03 02:33N 22°17' E 114°10'2 1.3
2016-Dec-03 01:08N 22°18' E 114°08'2 1.2
2016-Dec-02 23:33N 22°17' E 114°10'2 1.9
2016-Dec-02 22:33N 22°18' E 114°08'0 0.0
2016-Dec-02 13:25N 22°18' E 114°08'1 0.8
2016-Dec-02 11:33N 22°17' E 114°09'0 0.1
2016-Dec-02 10:10N 22°17' E 114°10'0 0.8
2016-Dec-02 09:33N 22°17' E 114°10'0 0.4
2016-Dec-02 08:33N 22°17' E 114°10'0 0.0
2016-Dec-02 05:33N 22°17' E 114°10'0 0.0
2016-Dec-02 02:34N 22°17' E 114°10'2 1.6
2016-Dec-02 01:06N 22°17' E 114°07'2 1.4
2016-Dec-01 23:32N 22°17' E 114°09'2 1.4
2016-Dec-01 22:19N 22°18' E 114°08'0 0.0
2016-Dec-01 13:26N 22°18' E 114°08'1 0.8
2016-Dec-01 12:28N 22°17' E 114°07'3 2.1
2016-Dec-01 11:13N 22°17' E 114°10'1 1.0
2016-Dec-01 10:09N 22°18' E 114°08'1 1.6
2016-Dec-01 09:33N 22°17' E 114°09'1 0.7
2016-Dec-01 08:32N 22°18' E 114°09'1 0.3
2016-Dec-01 05:33N 22°17' E 114°10'0 0.1
2016-Dec-01 02:25N 22°17' E 114°09'0 0.0
2016-Nov-30 23:30N 22°17' E 114°10'0 0.3
2016-Nov-30 22:12N 22°18' E 114°09'1 0.1
2016-Nov-30 13:25N 22°18' E 114°08'0 0.2
2016-Nov-30 12:05N 22°18' E 114°08'1 2.2
2016-Nov-30 11:27N 22°17' E 114°10'2 1.6
2016-Nov-30 10:19N 22°18' E 114°08'2 1.8
2016-Nov-30 09:26N 22°18' E 114°09'0 0.0
2016-Nov-30 08:31N 22°18' E 114°09'0 0.0
2016-Nov-30 06:30N 22°18' E 114°09'0 0.0
2016-Nov-30 03:05N 22°18' E 114°09'1 1.1
2016-Nov-30 02:33N 22°18' E 114°09'0 0.1
2016-Nov-29 23:33N 22°17' E 114°10'2 1.2
2016-Nov-29 22:17N 22°18' E 114°08'0 0.0
2016-Nov-29 13:32N 22°18' E 114°08'0 0.4
2016-Nov-29 12:32N 22°17' E 114°07'2 1.9
2016-Nov-29 11:16N 22°17' E 114°10'3 3.0
2016-Nov-29 10:24N 22°18' E 114°07'3 2.5
2016-Nov-29 09:20N 22°17' E 114°10'0 0.1
2016-Nov-29 08:32N 22°17' E 114°10'0 0.0
2016-Nov-29 02:33N 22°17' E 114°10'2 1.3
2016-Nov-29 01:07N 22°18' E 114°08'2 1.2
2016-Nov-28 23:33N 22°17' E 114°10'2 1.4
2016-Nov-28 22:19N 22°18' E 114°08'0 0.0
2016-Nov-28 13:24N 22°18' E 114°08'2 0.9
2016-Nov-28 11:33N 22°17' E 114°10'1 0.5
2016-Nov-28 10:07N 22°18' E 114°09'0 0.4
2016-Nov-28 09:33N 22°18' E 114°09'0 0.4
2016-Nov-28 08:33N 22°18' E 114°09'1 0.2
2016-Nov-28 05:33N 22°17' E 114°10'0 0.0
2016-Nov-28 02:31N 22°17' E 114°10'2 1.2
2016-Nov-28 01:05N 22°18' E 114°08'2 1.1
2016-Nov-27 23:33N 22°17' E 114°10'2 1.7
2016-Nov-27 22:25N 22°18' E 114°08'0 0.1
2016-Nov-27 14:29N 22°18' E 114°08'1 0.5
2016-Nov-27 12:28N 22°18' E 114°09'0 0.2
2016-Nov-27 10:16N 22°17' E 114°10'0 0.1
2016-Nov-27 09:06N 22°17' E 114°09'0 0.2
2016-Nov-27 08:27N 22°17' E 114°09'0 0.0
2016-Nov-27 07:33N 22°17' E 114°09'0 0.0
2016-Nov-27 06:27N 22°17' E 114°09'0 0.0
2016-Nov-27 05:30N 22°17' E 114°09'1 0.9
2016-Nov-27 04:09N 22°18' E 114°08'0 0.8
2016-Nov-27 03:33N 22°18' E 114°09'2 1.6
2016-Nov-27 02:31N 22°17' E 114°07'2 2.2
2016-Nov-27 01:23N 22°18' E 114°09'0 0.0
2016-Nov-27 00:30N 22°18' E 114°09'1 0.9
2016-Nov-26 23:23N 22°19' E 114°09'2 0.2
2016-Nov-26 13:25N 22°18' E 114°07'  

Dump ship's entire track history